createdAt,value
2022-10-25T00:01:22.971Z,100190.24
2022-10-25T00:16:54.696Z,100169.18
2022-10-25T00:18:04.283Z,100170.39
2022-10-25T00:19:15.053Z,100171.63
2022-10-25T00:21:59.262Z,100157.38
2022-10-25T00:24:24.317Z,100157.63
2022-10-25T00:26:49.815Z,100158.86
2022-10-25T00:29:13.929Z,100150.75
2022-10-25T00:31:38.798Z,100152.16
2022-10-25T00:34:05.894Z,100153.44
2022-10-25T00:36:49.536Z,100154.48
2022-10-25T00:38:00.494Z,100154.56
2022-10-25T00:39:10.291Z,100154.44
2022-10-25T00:41:36.420Z,100146.68
2022-10-25T00:44:40.526Z,100148.92
2022-10-25T00:45:49.896Z,100145.83
2022-10-25T00:46:59.422Z,100151.62
2022-10-25T00:48:11.509Z,100140.47
2022-10-25T00:50:53.508Z,100137.10
2022-10-25T00:53:27.341Z,100134.03
2022-10-25T00:56:19.748Z,100140.69
2022-10-25T00:57:39.215Z,100154.24
2022-10-25T01:00:09.721Z,100142.86
2022-10-25T01:01:18.287Z,100152.22
2022-10-25T01:04:06.714Z,100150.86
2022-10-25T01:05:17.156Z,100148.97
2022-10-25T01:06:46.232Z,100142.63
2022-10-25T01:09:13.998Z,100138.63
2022-10-25T01:10:24.206Z,100133.97
2022-10-25T01:11:35.817Z,100128.45
2022-10-25T01:14:00.649Z,100124.45
2022-10-25T01:16:37.317Z,100128.09
2022-10-25T01:19:56.964Z,100122.40
2022-10-25T01:21:39.808Z,100124.41
2022-10-25T01:24:53.268Z,100110.41
2022-10-25T01:29:20.681Z,100108.95
2022-10-25T01:33:33.391Z,100094.55
2022-10-25T01:39:03.020Z,100092.86
2022-10-25T01:43:41.447Z,100093.73
2022-10-25T01:45:00.809Z,100112.91
2022-10-25T01:47:54.240Z,100098.20
2022-10-25T01:49:05.554Z,100102.55
2022-10-25T01:50:25.679Z,100100.38
2022-10-25T01:55:41.049Z,100087.52
2022-10-25T01:57:14.091Z,100089.70
2022-10-25T02:00:14.349Z,100084.77
2022-10-25T02:03:02.042Z,100087.61
2022-10-25T02:05:58.274Z,100088.36
2022-10-25T02:08:47.918Z,100091.19
2022-10-25T02:11:27.693Z,100076.13
2022-10-25T02:14:39.778Z,100072.81
2022-10-25T02:17:26.294Z,100084.07
2022-10-25T02:18:39.070Z,100090.89
2022-10-25T02:19:52.460Z,100086.20
2022-10-25T02:22:23.802Z,100081.44
2022-10-25T02:24:54.775Z,100082.02
2022-10-25T02:27:29.459Z,100079.95
2022-10-25T02:28:41.426Z,100083.11
2022-10-25T02:29:52.407Z,100081.17
2022-10-25T02:32:17.447Z,100072.52
2022-10-25T02:33:27.554Z,100082.03
2022-10-25T02:36:17.026Z,100076.70
2022-10-25T02:38:42.096Z,100077.45
2022-10-25T02:41:09.978Z,100070.37
2022-10-25T02:42:20.991Z,100071.84
2022-10-25T02:44:44.808Z,100065.69
2022-10-25T02:47:10.409Z,100076.23
2022-10-25T02:49:42.053Z,100084.02
2022-10-25T02:50:51.801Z,100086.44
2022-10-25T02:53:16.042Z,100080.14
2022-10-25T02:55:46.080Z,100093.09
2022-10-25T02:58:16.382Z,100088.03
2022-10-25T03:00:41.859Z,100090.16
2022-10-25T03:01:51.606Z,100091.48
2022-10-25T03:03:00.985Z,100086.70
2022-10-25T03:05:26.719Z,100088.62
2022-10-25T03:06:36.862Z,100092.64
2022-10-25T03:07:46.440Z,100089.62
2022-10-25T03:08:56.484Z,100087.28
2022-10-25T03:12:50.912Z,100084.16
2022-10-25T03:15:16.314Z,100088.11
2022-10-25T03:17:43.053Z,100089.38
2022-10-25T03:18:52.692Z,100091.02
2022-10-25T03:21:16.295Z,100085.75
2022-10-25T03:22:25.003Z,100090.75
2022-10-25T03:23:34.384Z,100089.52
2022-10-25T03:26:01.144Z,100086.44
2022-10-25T03:28:27.087Z,100087.64
2022-10-25T03:29:36.634Z,100081.02
2022-10-25T03:32:00.948Z,100088.64
2022-10-25T03:33:19.455Z,100092.06
2022-10-25T03:35:45.093Z,100097.98
2022-10-25T03:37:01.870Z,100091.58
2022-10-25T03:39:45.300Z,100087.67
2022-10-25T03:42:10.136Z,100079.30
2022-10-25T03:43:20.023Z,100087.31
2022-10-25T03:45:44.318Z,100085.30
2022-10-25T03:46:53.478Z,100090.12
2022-10-25T03:49:17.179Z,100082.95
2022-10-25T03:50:27.290Z,100083.02
2022-10-25T03:51:35.935Z,100088.16
2022-10-25T03:54:00.638Z,100074.48
2022-10-25T03:56:26.441Z,100076.66
2022-10-25T03:57:36.247Z,100076.02
2022-10-25T03:58:45.327Z,100080.72
2022-10-25T04:01:11.013Z,100073.93
2022-10-25T04:03:37.516Z,100073.59
2022-10-25T04:04:46.124Z,100077.36
2022-10-25T04:07:17.223Z,100072.18
2022-10-25T04:09:41.945Z,100079.02
2022-10-25T04:10:50.695Z,100076.66
2022-10-25T04:12:01.067Z,100069.03
2022-10-25T04:14:24.773Z,100064.41
2022-10-25T04:16:49.566Z,100066.34
2022-10-25T04:17:59.314Z,100065.45
2022-10-25T04:19:08.488Z,100069.95
2022-10-25T04:21:54.003Z,100058.62
2022-10-25T04:24:18.642Z,100048.52
2022-10-25T04:25:29.406Z,100061.11
2022-10-25T04:26:45.771Z,100050.84
2022-10-25T04:27:56.320Z,100059.20
2022-10-25T04:29:06.026Z,100057.87
2022-10-25T04:30:22.810Z,100053.72
2022-10-25T04:32:46.970Z,100039.08
2022-10-25T04:33:56.844Z,100047.51
2022-10-25T04:35:06.539Z,100049.73
2022-10-25T04:36:17.945Z,100050.96
2022-10-25T04:37:31.075Z,100050.46
2022-10-25T04:39:54.685Z,100043.66
2022-10-25T04:42:20.951Z,100047.70
2022-10-25T04:44:53.962Z,100044.35
2022-10-25T04:46:04.136Z,100051.08
2022-10-25T04:48:29.814Z,100045.06
2022-10-25T04:49:39.035Z,100052.74
2022-10-25T04:52:04.361Z,100047.61
2022-10-25T04:53:20.249Z,100048.55
2022-10-25T04:54:29.334Z,100047.58
2022-10-25T04:55:38.655Z,100048.30
2022-10-25T04:56:47.837Z,100049.66
2022-10-25T04:57:57.637Z,100048.33
2022-10-25T04:59:07.006Z,100047.11
2022-10-25T05:01:34.389Z,100039.17
2022-10-25T05:03:59.103Z,100032.09
2022-10-25T05:06:27.648Z,100042.83
2022-10-25T05:07:45.291Z,100042.34
2022-10-25T05:08:55.646Z,100041.83
2022-10-25T05:10:05.863Z,100039.71
2022-10-25T05:12:35.485Z,100034.69
2022-10-25T05:15:00.185Z,100034.66
2022-10-25T05:16:24.658Z,100034.75
2022-10-25T05:17:34.249Z,100038.41
2022-10-25T05:18:46.510Z,100043.43
2022-10-25T05:21:10.053Z,100045.22
2022-10-25T05:22:19.239Z,100040.20
2022-10-25T05:23:28.896Z,100045.10
2022-10-25T05:26:05.521Z,100045.30
2022-10-25T05:28:30.772Z,100048.72
2022-10-25T05:29:39.860Z,100050.06
2022-10-25T05:30:48.543Z,100048.34
2022-10-25T05:32:00.385Z,100052.16
2022-10-25T05:33:09.530Z,100046.27
2022-10-25T05:34:18.327Z,100049.54
2022-10-25T05:35:28.167Z,100051.84
2022-10-25T05:37:53.087Z,100040.34
2022-10-25T05:39:03.055Z,100048.85
2022-10-25T05:41:31.900Z,100048.00
2022-10-25T05:42:47.198Z,100048.70
2022-10-25T05:43:57.867Z,100046.77
2022-10-25T05:46:24.844Z,100044.01
2022-10-25T05:47:33.305Z,100049.88
2022-10-25T05:48:48.199Z,100054.06
2022-10-25T05:52:27.753Z,100039.52
2022-10-25T05:54:52.908Z,100041.70
2022-10-25T05:57:16.466Z,100047.52
2022-10-25T05:58:25.599Z,100055.92
2022-10-25T06:00:51.221Z,100048.20
2022-10-25T06:02:01.085Z,100054.52
2022-10-25T06:03:11.095Z,100062.23
2022-10-25T06:04:20.320Z,100056.49
2022-10-25T06:05:29.514Z,100058.73
2022-10-25T06:07:55.661Z,100051.58
2022-10-25T06:09:06.598Z,100041.29
2022-10-25T06:10:16.192Z,100042.65
2022-10-25T06:11:26.301Z,100038.50
2022-10-25T06:12:35.511Z,100042.55
2022-10-25T06:15:01.458Z,100046.91
2022-10-25T06:17:29.041Z,100048.27
2022-10-25T06:18:40.686Z,100049.36
2022-10-25T06:21:08.407Z,100041.55
2022-10-25T06:23:34.494Z,100043.87
2022-10-25T06:24:43.184Z,100047.80
2022-10-25T06:25:52.794Z,100054.41
2022-10-25T06:28:17.655Z,100043.96
2022-10-25T06:29:27.263Z,100049.52
2022-10-25T06:31:51.807Z,100055.13
2022-10-25T06:34:16.747Z,100055.27
2022-10-25T06:36:40.673Z,100055.16
2022-10-25T06:37:52.680Z,100063.25
2022-10-25T06:39:05.513Z,100063.00
2022-10-25T06:41:29.484Z,100051.09
2022-10-25T06:43:54.158Z,100039.17
2022-10-25T06:47:15.406Z,100045.30
2022-10-25T06:51:53.514Z,100035.66
2022-10-25T06:53:03.165Z,100047.81
2022-10-25T06:55:33.124Z,100032.61
2022-10-25T06:57:58.630Z,100037.63
2022-10-25T07:00:23.355Z,100035.56
2022-10-25T07:01:33.284Z,100043.87
2022-10-25T07:03:57.815Z,100028.91
2022-10-25T07:06:42.928Z,100028.13
2022-10-25T07:09:12.948Z,100031.98
2022-10-25T07:11:38.314Z,100024.59
2022-10-25T07:14:05.143Z,100028.48
2022-10-25T07:16:31.274Z,100020.30
2022-10-25T07:19:04.603Z,100024.50
2022-10-25T07:20:14.258Z,100025.66
2022-10-25T07:23:00.271Z,100029.33
2022-10-25T07:24:10.666Z,100026.66
2022-10-25T07:26:39.993Z,100025.30
2022-10-25T07:29:23.037Z,100019.38
2022-10-25T07:31:48.177Z,100011.72
2022-10-25T07:34:15.066Z,100010.95
2022-10-25T07:35:24.023Z,100017.25
2022-10-25T07:37:55.546Z,100009.23
2022-10-25T07:40:19.873Z,100017.59
2022-10-25T07:42:49.407Z,100014.41
2022-10-25T07:43:58.226Z,100025.12
2022-10-25T07:46:23.761Z,100016.41
2022-10-25T07:47:33.279Z,100026.10
2022-10-25T07:48:42.569Z,100019.99
2022-10-25T07:49:52.237Z,100021.72
2022-10-25T07:52:28.968Z,100017.67
2022-10-25T07:53:38.877Z,100017.81
2022-10-25T07:56:02.879Z,100008.98
2022-10-25T07:58:26.569Z,100004.68
2022-10-25T08:00:51.665Z,100005.15
2022-10-25T08:03:18.047Z,99995.59
2022-10-25T08:05:47.882Z,99991.72
2022-10-25T08:08:17.295Z,99995.80
2022-10-25T08:10:42.765Z,99992.36
2022-10-25T08:13:07.337Z,99986.25
2022-10-25T08:15:31.921Z,99982.54
2022-10-25T08:18:00.583Z,99980.95
2022-10-25T08:19:11.882Z,99980.15
2022-10-25T08:21:36.948Z,99979.27
2022-10-25T08:22:47.229Z,99981.13
2022-10-25T08:23:56.342Z,99984.81
2022-10-25T08:26:25.086Z,99983.01
2022-10-25T08:27:33.802Z,99988.81
2022-10-25T08:29:58.729Z,99977.30
2022-10-25T08:32:23.100Z,99976.16
2022-10-25T08:34:49.090Z,99975.77
2022-10-25T08:37:19.571Z,99976.89
2022-10-25T08:39:44.426Z,99970.78
2022-10-25T08:42:59.865Z,99972.61
2022-10-25T08:45:50.141Z,99968.22
2022-10-25T08:47:18.104Z,99981.81
2022-10-25T08:50:02.618Z,99970.19
2022-10-25T08:52:54.399Z,99966.36
2022-10-25T09:17:49.583Z,99963.26
2022-10-25T09:18:58.638Z,99968.64
2022-10-25T09:21:54.284Z,99958.87
2022-10-25T09:24:59.879Z,99955.28
2022-10-25T09:27:50.543Z,99959.85
2022-10-25T09:29:05.860Z,99962.39
2022-10-25T09:30:16.345Z,99963.23
2022-10-25T09:31:33.657Z,99964.22
2022-10-25T09:34:07.620Z,99956.02
2022-10-25T09:35:21.866Z,99950.59
2022-10-25T09:38:15.060Z,99946.64
2022-10-25T09:41:38.239Z,99938.94
2022-10-25T09:44:45.840Z,99942.66
2022-10-25T09:47:43.602Z,99930.96
2022-10-25T09:50:42.438Z,99931.11
2022-10-25T09:53:41.690Z,99928.40
2022-10-25T09:56:13.742Z,99931.11
2022-10-25T09:58:41.581Z,99933.11
2022-10-25T10:01:17.279Z,99936.66
2022-10-25T10:04:05.241Z,99932.09
2022-10-25T10:06:39.542Z,99927.70
2022-10-25T10:09:08.551Z,99925.11
2022-10-25T10:11:39.040Z,99933.95
2022-10-25T10:14:40.154Z,99927.55
2022-10-25T10:17:19.477Z,99933.81
2022-10-25T10:20:07.916Z,99929.39
2022-10-25T10:24:09.135Z,99933.53
2022-10-25T10:26:48.673Z,99928.26
2022-10-25T10:27:58.205Z,99939.06
2022-10-25T10:30:31.807Z,99926.54
2022-10-25T10:33:01.976Z,99931.95
2022-10-25T10:35:56.086Z,99927.41
2022-10-25T10:38:28.985Z,99930.27
2022-10-25T10:41:29.021Z,99923.84
2022-10-25T10:44:13.904Z,99930.82
2022-10-25T10:46:58.014Z,99922.70
2022-10-25T10:49:35.283Z,99925.41
2022-10-25T10:52:05.917Z,99920.14
2022-10-25T10:55:02.870Z,99919.30
2022-10-25T10:57:34.428Z,99920.28
2022-10-25T11:00:05.428Z,99918.56
2022-10-25T11:05:27.672Z,99917.13
2022-10-25T11:09:25.183Z,99912.59
2022-10-25T11:13:23.068Z,99918.01
2022-10-25T11:16:01.213Z,99914.71
2022-10-25T11:19:04.255Z,99902.60
2022-10-25T11:21:45.532Z,99904.86
2022-10-25T11:24:48.145Z,99902.72
2022-10-25T11:28:47.862Z,99895.03
2022-10-25T11:31:50.513Z,99889.48
2022-10-25T11:36:20.853Z,99886.78
2022-10-25T11:39:14.190Z,99892.05
2022-10-25T11:42:14.858Z,99885.66
2022-10-25T11:46:28.249Z,99893.63
2022-10-25T11:49:35.608Z,99891.63
2022-10-25T11:54:29.374Z,99895.06
2022-10-25T11:57:34.273Z,99888.63
2022-10-25T12:01:54.977Z,99899.31
2022-10-25T12:04:46.213Z,99891.20
2022-10-25T12:07:31.899Z,99896.60
2022-10-25T12:13:31.498Z,99895.33
2022-10-25T12:16:08.129Z,99895.33
2022-10-25T12:19:04.208Z,99887.95
2022-10-25T12:23:12.885Z,99892.79
2022-10-25T12:27:13.216Z,99890.81
2022-10-25T12:30:08.731Z,99893.66
2022-10-25T12:32:51.955Z,99892.79
2022-10-25T12:35:47.033Z,99892.93
2022-10-25T12:38:21.125Z,99891.24
2022-10-25T12:40:58.893Z,99883.98
2022-10-25T12:43:32.831Z,99884.95
2022-10-25T12:46:36.145Z,99886.82
2022-10-25T12:49:22.837Z,99881.95
2022-10-25T12:52:29.414Z,99882.38
2022-10-25T12:57:02.621Z,99882.66
2022-10-25T13:00:01.278Z,99884.78
2022-10-25T13:03:12.607Z,99877.09
2022-10-25T13:06:25.526Z,99876.55
2022-10-25T13:09:16.127Z,99869.77
2022-10-25T13:13:39.642Z,99865.23
2022-10-25T13:16:13.379Z,99867.38
2022-10-25T13:17:25.732Z,99876.20
2022-10-25T13:21:57.091Z,99862.97
2022-10-25T13:24:50.792Z,99865.20
2022-10-25T13:27:22.033Z,99865.90
2022-10-25T13:30:05.854Z,99861.36
2022-10-25T13:34:35.530Z,99859.36
2022-10-25T13:35:52.058Z,99873.32
2022-10-25T13:38:39.967Z,99861.68
2022-10-25T13:41:20.465Z,99850.55
2022-10-25T13:42:36.486Z,99860.80
2022-10-25T13:45:31.340Z,99847.36
2022-10-25T13:46:41.322Z,99853.52
2022-10-25T13:47:53.407Z,99850.38
2022-10-25T13:50:36.944Z,99857.23
2022-10-25T13:53:13.554Z,99845.30
2022-10-25T13:56:26.778Z,99842.16
2022-10-25T13:57:48.551Z,99847.98
2022-10-25T14:00:28.979Z,99842.71
2022-10-25T14:01:48.673Z,99846.11
2022-10-25T14:03:15.013Z,99843.99
2022-10-25T14:04:36.066Z,99855.08
2022-10-25T14:05:58.485Z,99847.98
2022-10-25T14:09:22.398Z,99841.84
2022-10-25T14:12:07.640Z,99840.69
2022-10-25T14:15:03.805Z,99842.96
2022-10-25T14:17:45.583Z,99844.81
2022-10-25T14:20:33.069Z,99845.43
2022-10-25T14:23:11.712Z,99846.98
2022-10-25T14:25:41.126Z,99842.56
2022-10-25T14:28:38.955Z,99849.44
2022-10-25T14:31:08.763Z,99853.70
2022-10-25T14:34:55.708Z,99845.41
2022-10-25T14:37:28.057Z,99852.79
2022-10-25T14:40:31.260Z,99843.11
2022-10-25T14:43:32.212Z,99852.25
2022-10-25T14:46:14.083Z,99851.25
2022-10-25T14:48:49.118Z,99854.56
2022-10-25T14:51:22.382Z,99853.83
2022-10-25T14:52:32.556Z,99850.83
2022-10-25T14:54:00.805Z,99852.84
2022-10-25T14:58:00.748Z,99852.66
2022-10-25T15:01:02.374Z,99857.22
2022-10-25T15:02:22.619Z,99860.67
2022-10-25T15:04:54.913Z,99847.36
2022-10-25T15:08:52.334Z,99845.13
2022-10-25T15:11:21.140Z,99847.42
2022-10-25T15:16:50.224Z,99835.90
2022-10-25T15:18:00.137Z,99851.56
2022-10-25T15:19:15.490Z,99837.17
2022-10-25T15:20:34.269Z,99842.72
2022-10-25T15:21:49.358Z,99841.28
2022-10-25T15:26:27.325Z,99823.00
2022-10-25T15:27:42.974Z,99836.17
2022-10-25T15:31:57.818Z,99829.61
2022-10-25T15:33:13.665Z,99824.61
2022-10-25T15:37:12.632Z,99818.91
2022-10-25T15:39:46.813Z,99821.64
2022-10-25T15:40:55.898Z,99826.77
2022-10-25T15:42:07.736Z,99828.19
2022-10-25T15:44:33.186Z,99835.14
2022-10-25T15:46:57.926Z,99836.15
2022-10-25T15:49:25.304Z,99833.71
2022-10-25T15:51:49.332Z,99825.91
2022-10-25T15:53:01.698Z,99834.63
2022-10-25T15:54:24.437Z,99837.33
2022-10-25T15:55:34.279Z,99835.31
2022-10-25T15:56:45.248Z,99834.88
2022-10-25T15:57:55.353Z,99830.88
2022-10-25T16:00:27.939Z,99836.15
2022-10-25T16:02:52.213Z,99825.98
2022-10-25T16:05:25.905Z,99817.86
2022-10-25T16:07:51.495Z,99819.91
2022-10-25T16:09:01.908Z,99831.31
2022-10-25T16:11:25.795Z,99823.78
2022-10-25T16:12:37.716Z,99829.03
2022-10-25T16:15:09.911Z,99823.88
2022-10-25T16:17:49.878Z,99824.32
2022-10-25T16:20:22.719Z,99825.47
2022-10-25T16:22:49.798Z,99834.58
2022-10-25T16:24:00.159Z,99837.70
2022-10-25T16:26:39.383Z,99832.67
2022-10-25T16:27:48.513Z,99830.98
2022-10-25T16:30:27.059Z,99830.98
2022-10-25T16:31:36.413Z,99841.58
2022-10-25T16:32:46.119Z,99839.29
2022-10-25T16:35:13.338Z,99835.73
2022-10-25T16:36:23.678Z,99828.05
2022-10-25T16:38:48.775Z,99830.75
2022-10-25T16:41:25.109Z,99823.50
2022-10-25T16:43:51.934Z,99828.05
2022-10-25T16:46:18.122Z,99823.73
2022-10-25T16:48:43.723Z,99822.26
2022-10-25T16:52:26.405Z,99828.67
2022-10-25T16:54:50.982Z,99824.16
2022-10-25T16:57:15.852Z,99820.45
2022-10-25T16:59:39.516Z,99818.64
2022-10-25T17:02:05.305Z,99815.52
2022-10-25T17:04:29.639Z,99811.95
2022-10-25T17:06:57.106Z,99812.95
2022-10-25T17:09:21.187Z,99798.40
2022-10-25T17:12:05.202Z,99797.14
2022-10-25T17:14:31.692Z,99808.53
2022-10-25T17:16:57.442Z,99809.95
2022-10-25T17:19:22.515Z,99808.81
2022-10-25T17:21:47.425Z,99804.82
2022-10-25T17:24:12.441Z,99804.34
2022-10-25T17:26:38.748Z,99794.78
2022-10-25T17:29:06.039Z,99797.52
2022-10-25T17:31:33.818Z,99804.09
2022-10-25T17:34:02.967Z,99798.16
2022-10-25T17:36:28.740Z,99804.53
2022-10-25T17:38:58.433Z,99808.23
2022-10-25T17:41:32.201Z,99800.97
2022-10-25T17:43:57.253Z,99800.27
2022-10-25T17:46:29.640Z,99792.12
2022-10-25T17:49:05.257Z,99796.42
2022-10-25T17:51:33.952Z,99794.44
2022-10-25T17:53:58.272Z,99786.16
2022-10-25T17:56:27.946Z,99787.30
2022-10-25T17:58:53.071Z,99789.15
2022-10-25T18:01:20.620Z,99770.21
2022-10-25T18:03:44.648Z,99771.61
2022-10-25T18:06:12.007Z,99776.84
2022-10-25T18:08:37.123Z,99792.98
2022-10-25T18:12:31.310Z,99792.72
2022-10-25T18:14:57.281Z,99783.20
2022-10-25T18:17:22.912Z,99782.73
2022-10-25T18:19:48.629Z,99774.20
2022-10-25T18:22:26.756Z,99768.77
2022-10-25T18:24:52.345Z,99772.03
2022-10-25T18:27:17.858Z,99770.17
2022-10-25T18:28:35.686Z,99778.91
2022-10-25T18:31:12.190Z,99775.48
2022-10-25T18:32:33.491Z,99780.59
2022-10-25T18:34:59.764Z,99774.63
2022-10-25T18:37:32.538Z,99774.62
2022-10-25T18:39:56.593Z,99774.04
2022-10-25T18:42:27.103Z,99775.31
2022-10-25T18:44:52.561Z,99773.27
2022-10-25T18:47:16.589Z,99766.44
2022-10-25T18:49:42.104Z,99772.03
2022-10-25T18:52:08.604Z,99767.20
2022-10-25T18:54:32.407Z,99769.94
2022-10-25T18:57:03.226Z,99766.39
2022-10-25T18:59:29.432Z,99762.38
2022-10-25T19:01:54.155Z,99763.61
2022-10-25T19:04:20.121Z,99766.55
2022-10-25T19:06:45.795Z,99767.97
2022-10-25T19:09:10.755Z,99758.02
2022-10-25T19:11:54.755Z,99762.62
2022-10-25T19:14:20.632Z,99767.91
2022-10-25T19:17:04.256Z,99759.96
2022-10-25T19:19:29.635Z,99763.22
2022-10-25T19:20:40.076Z,99764.50
2022-10-25T19:23:05.134Z,99756.60
2022-10-25T19:24:16.298Z,99765.02
2022-10-25T19:26:44.517Z,99762.97
2022-10-25T19:29:10.696Z,99765.27
2022-10-25T19:30:20.479Z,99769.45
2022-10-25T19:32:45.516Z,99758.62
2022-10-25T19:34:13.134Z,99768.20
2022-10-25T19:37:14.645Z,99761.77
2022-10-25T19:38:23.352Z,99764.95
2022-10-25T19:40:50.497Z,99752.98
2022-10-25T19:43:15.086Z,99768.20
2022-10-25T19:45:42.828Z,99758.62
2022-10-25T19:48:06.878Z,99753.44
2022-10-25T19:50:32.521Z,99758.55
2022-10-25T19:53:00.563Z,99752.17
2022-10-25T19:55:26.348Z,99753.35
2022-10-25T19:57:52.062Z,99757.08
2022-10-25T20:00:17.230Z,99756.95
2022-10-25T20:02:42.780Z,99754.12
2022-10-25T20:05:09.274Z,99752.98
2022-10-25T20:07:39.390Z,99748.96
2022-10-25T20:10:05.249Z,99751.19
2022-10-25T20:12:31.329Z,99747.48
2022-10-25T20:14:57.053Z,99736.53
2022-10-25T20:17:22.249Z,99739.42
2022-10-25T20:19:49.723Z,99746.43
2022-10-25T20:22:26.273Z,99739.00
2022-10-25T20:24:50.480Z,99741.27
2022-10-25T20:27:14.366Z,99747.59
2022-10-25T20:29:39.589Z,99735.63
2022-10-25T20:32:23.567Z,99737.49
2022-10-25T20:34:47.369Z,99741.95
2022-10-25T20:37:15.561Z,99732.45
2022-10-25T20:40:01.567Z,99741.31
2022-10-25T20:42:29.554Z,99735.77
2022-10-25T20:44:55.429Z,99728.20
2022-10-25T20:47:22.235Z,99734.70
2022-10-25T20:49:47.170Z,99734.09
2022-10-25T20:52:11.933Z,99729.91
2022-10-25T20:54:37.131Z,99729.59
2022-10-25T20:57:22.473Z,99723.53
2022-10-25T20:59:48.837Z,99729.67
2022-10-25T21:02:13.785Z,99731.58
2022-10-25T21:03:25.153Z,99727.63
2022-10-25T21:04:42.614Z,99721.64
2022-10-25T21:07:00.878Z,99719.52
2022-10-25T21:09:26.213Z,99719.33
2022-10-25T21:11:51.816Z,99724.26
2022-10-25T21:14:16.888Z,99714.80
2022-10-25T21:16:41.544Z,99718.66
2022-10-25T21:17:51.538Z,99722.70
2022-10-25T21:20:18.797Z,99721.16
2022-10-25T21:21:27.880Z,99725.47
2022-10-25T21:23:56.999Z,99721.92
2022-10-25T21:26:23.355Z,99725.34
2022-10-25T21:27:32.322Z,99723.77
2022-10-25T21:29:59.707Z,99713.52
2022-10-25T21:32:28.086Z,99725.05
2022-10-25T21:34:56.838Z,99716.74
2022-10-25T21:37:24.533Z,99720.86
2022-10-25T21:39:49.699Z,99723.99
2022-10-25T21:42:44.462Z,99724.56
2022-10-25T21:43:55.431Z,99731.42
2022-10-25T21:46:21.247Z,99718.08
2022-10-25T21:48:48.260Z,99717.81
2022-10-25T21:51:14.137Z,99728.83
2022-10-25T21:53:38.504Z,99724.14
2022-10-25T21:56:11.959Z,99726.19
2022-10-25T21:58:35.621Z,99723.81
2022-10-25T22:01:00.359Z,99723.38
2022-10-25T22:03:45.450Z,99725.35
2022-10-25T22:06:19.190Z,99727.77
2022-10-25T22:08:45.066Z,99723.06
2022-10-25T22:11:17.527Z,99717.31
2022-10-25T22:12:26.256Z,99722.49
2022-10-25T22:14:50.088Z,99718.84
2022-10-25T22:17:26.202Z,99727.99
2022-10-25T22:19:50.314Z,99720.66
2022-10-25T22:22:26.311Z,99726.47
2022-10-25T22:24:52.980Z,99722.65
2022-10-25T22:26:07.260Z,99728.22
2022-10-25T22:30:12.548Z,99723.50
2022-10-25T22:32:38.440Z,99720.08
2022-10-25T22:35:08.063Z,99718.25
2022-10-25T22:37:34.567Z,99725.92
2022-10-25T22:39:59.872Z,99717.50
2022-10-25T22:42:31.188Z,99721.20
2022-10-25T22:43:40.738Z,99724.66
2022-10-25T22:44:50.551Z,99723.92
2022-10-25T22:47:16.981Z,99717.08
2022-10-25T22:49:47.219Z,99725.44
2022-10-25T22:52:15.477Z,99724.87
2022-10-25T22:54:39.854Z,99726.58
2022-10-25T22:57:13.289Z,99719.48
2022-10-25T22:59:36.955Z,99717.50
2022-10-25T23:02:02.625Z,99718.50
2022-10-25T23:03:11.751Z,99723.11
2022-10-25T23:04:21.188Z,99731.92
2022-10-25T23:06:47.138Z,99732.06
2022-10-25T23:09:11.607Z,99722.25
2022-10-25T23:10:22.623Z,99734.77
2022-10-25T23:11:33.938Z,99733.63
2022-10-25T23:14:14.655Z,99734.73
2022-10-25T23:15:20.346Z,99754.12
2022-10-25T23:20:11.861Z,99737.46
2022-10-25T23:22:40.955Z,99737.88
2022-10-25T23:25:08.674Z,99746.84
2022-10-25T23:27:38.701Z,99748.14
2022-10-25T23:28:48.336Z,99746.60
2022-10-25T23:29:57.031Z,99749.16
2022-10-25T23:31:08.865Z,99753.43
2022-10-25T23:32:17.980Z,99750.42
2022-10-25T23:34:42.167Z,99745.55
2022-10-25T23:37:06.862Z,99746.70
2022-10-25T23:39:31.643Z,99751.12
2022-10-25T23:40:45.375Z,99757.42
2022-10-25T23:41:56.955Z,99758.27
2022-10-25T23:44:23.893Z,99748.17
2022-10-25T23:46:47.967Z,99758.27
2022-10-25T23:47:57.835Z,99757.29
2022-10-25T23:49:06.431Z,99749.29
2022-10-25T23:50:17.732Z,99758.42
2022-10-25T23:52:42.544Z,99752.72
2022-10-25T23:53:51.972Z,99759.95
2022-10-25T23:55:02.551Z,99763.38
2022-10-25T23:56:11.944Z,99759.25
2022-10-25T23:57:20.878Z,99765.24
2022-10-25T23:58:29.975Z,99767.08
2022-10-25T23:59:40.744Z,99771.06
